| 5/5/2026 | Wealthfront Advisers LLC | 8,962 | $266K | 0.0% | +9.6% | 0.204% | |
| 4/28/2026 | Ascentis Independent Advisors | 23,189 | $688K | 0.1% | N/A | 0.539% | |
| 4/27/2026 | PFG Investments LLC | 13,344 | $396K | 0.0% | -4.0% | 0.310% | |
| 4/21/2026 | Maridea Wealth Management LLC | 9,364 | $278K | 0.0% | -30.1% | 0.218% | |
| 3/17/2026 | Rockefeller Capital Management L.P. | 976 | $35K | 0.0% | +184.5% | 0.020% | |
| 2/13/2026 | Kestra Advisory Services LLC | 969 | $34K | 0.0% | N/A | 0.020% | |
| 2/12/2026 | Jane Street Group LLC | 93,719 | $3.32M | 0.0% | +123.3% | 1.913% | |
| 2/12/2026 | Riverwater Partners LLC | 91,505 | $3.24M | 1.3% | +3.0% | 1.867% | |
| 2/11/2026 | T3 Companies LLC | 31,334 | $1.11M | 1.4% | N/A | 0.639% | |
| 2/6/2026 | Csenge Advisory Group | 8,126 | $288K | 0.0% | N/A | 0.166% | |
Get the Latest News and Ratings for KRBN and Related Stocks Enter your email address below to receive the latest news and analysts' ratings for KraneShares Global Carbon Strategy ETF and its competitors with MarketBeat's FREE daily newsletter.
|
| 1/30/2026 | Wealthfront Advisers LLC | 8,176 | $289K | 0.0% | -9.3% | 0.164% | |
| 1/27/2026 | Q3 Asset Management | 107,196 | $3.79M | 0.9% | N/A | 2.144% | |
| 1/26/2026 | PFG Investments LLC | 13,902 | $492K | 0.0% | +21.0% | 0.273% | |
| 1/21/2026 | Prime Capital Investment Advisors LLC | 35,597 | $1.26M | 0.0% | N/A | 0.712% | |
| 1/16/2026 | Perigon Wealth Management LLC | 9,845 | $349K | 0.0% | -22.6% | 0.197% | |
| 1/16/2026 | Sharp Wealth Advisory LLC | 10,136 | $359K | 0.2% | -8.5% | 0.203% | |
| 1/9/2026 | SG Americas Securities LLC | 20,000 | $708K | 0.0% | -71.4% | 0.385% | |
| 1/1/2026 | JPMorgan Chase & Co. | 12,655 | $410K | 0.0% | -3.6% | 0.253% | |
| 11/20/2025 | WBI Investments LLC | 101,677 | $3.29M | 0.8% | +51.0% | 2.034% | |
| 11/17/2025 | Susquehanna International Group LLP | 35,608 | $1.15M | 0.0% | N/A | 0.712% | |
| 11/17/2025 | Flow Traders U.S. LLC | 155,250 | $5.03M | 0.2% | +203.9% | 3.105% | |
| 11/7/2025 | Maridea Wealth Management LLC | 13,211 | $449K | 0.1% | N/A | 0.264% | |
| 11/7/2025 | JPMorgan Chase & Co. | 12,655 | $410K | 0.0% | -3.6% | 0.253% | |
| 11/6/2025 | Wealthfront Advisers LLC | 9,010 | $292K | 0.0% | -3.7% | 0.180% | |
| 11/3/2025 | Florin Court Capital LLP | 31,639 | $1.03M | 0.8% | -36.4% | 0.620% | |
| 10/31/2025 | Riverwater Partners LLC | 88,835 | $2.88M | 1.2% | -2.5% | 1.742% | |
| 10/31/2025 | PFG Investments LLC | 11,488 | $372K | 0.0% | +6.6% | 0.225% | |
| 10/28/2025 | Sharp Financial Services LLC | 11,077 | $359K | 0.2% | +12.8% | 0.217% | |
| 10/23/2025 | Ethos Financial Group LLC | 7,696 | $249K | 0.0% | -72.9% | 0.154% | |
| 10/17/2025 | Perigon Wealth Management LLC | 12,719 | $412K | 0.0% | -4.5% | 0.254% | |
| 10/14/2025 | Farther Finance Advisors LLC | 1,500 | $49K | 0.0% | N/A | 0.029% | |
| 8/14/2025 | Jane Street Group LLC | 45,076 | $1.34M | 0.0% | -74.6% | 0.850% | |
| 8/13/2025 | Flow Traders U.S. LLC | 51,078 | $1.52M | 0.1% | -74.1% | 0.964% | |
| 8/12/2025 | Horizon Kinetics Asset Management LLC | 9,486 | $282K | 0.0% | -29.9% | 0.179% | |
| 8/12/2025 | JPMorgan Chase & Co. | 13,125 | $390K | 0.0% | -5.2% | 0.248% | |
| 8/11/2025 | WBI Investments LLC | 67,357 | $2M | 0.5% | +45.0% | 1.259% | |
| 8/6/2025 | Florin Court Capital LLP | 49,718 | $1.48M | 1.5% | N/A | 0.929% | |
| 8/6/2025 | Ethos Financial Group LLC | 28,431 | $843K | 0.1% | -18.9% | 0.531% | |
| 8/1/2025 | Riverwater Partners LLC | 91,135 | $2.71M | 1.3% | +2.0% | 1.703% | |
| 7/31/2025 | Wealthfront Advisers LLC | 9,357 | $278K | 0.0% | -15.8% | 0.175% | |
|
| 7/25/2025 | Sharp Financial Services LLC | 9,823 | $292K | 0.2% | -16.4% | 0.184% | |
| 7/22/2025 | Kraematon Investment Advisors Inc. | 15,920 | $473K | 0.4% | -36.5% | 0.298% | |
| 7/18/2025 | PFG Investments LLC | 10,778 | $320K | 0.0% | N/A | 0.201% | |
| 7/16/2025 | Perigon Wealth Management LLC | 13,312 | $395K | 0.0% | -4.4% | 0.249% | |
| 5/22/2025 | WBI Investments LLC | 46,452 | $1.31M | 0.3% | N/A | 0.860% | |
| 5/19/2025 | Jane Street Group LLC | 177,537 | $5.01M | 0.0% | +26.0% | 3.288% | |
| 5/14/2025 | Flow Traders U.S. LLC | 197,293 | $5.57M | 0.2% | +434.5% | 3.654% | |
| 5/12/2025 | Virtu Financial LLC | 7,264 | $205K | 0.0% | -36.6% | 0.131% | |
| 5/12/2025 | National Bank of Canada FI | 6,441 | $181K | 0.0% | -10.7% | 0.116% | |
| 5/5/2025 | Private Advisor Group LLC | 18,896 | $533K | 0.0% | -3.3% | 0.340% | |
| 5/2/2025 | Wealthfront Advisers LLC | 11,115 | $314K | 0.0% | -7.3% | 0.200% | |
| 4/29/2025 | Sharp Financial Services LLC | 11,751 | $332K | 0.3% | +4.7% | 0.212% | |
| 4/21/2025 | Riverwater Partners LLC | 89,383 | $2.52M | 1.3% | +7.0% | 1.611% | |
| 4/16/2025 | Wealth Enhancement Advisory Services LLC | 30,422 | $858K | 0.0% | +10.8% | 0.499% | |
| 4/15/2025 | SG Americas Securities LLC | 40,000 | $1.13M | 0.0% | -147.1% | 0.656% | |
| 4/14/2025 | Kraematon Investment Advisors Inc. | 25,062 | $707K | 0.7% | -20.0% | 0.411% | |
| 3/17/2025 | Wealth Enhancement Advisory Services LLC | 27,448 | $805K | 0.0% | -32.7% | 0.450% | |
| 3/12/2025 | Centaurus Financial Inc. | 4,345 | $127K | 0.0% | -16.2% | 0.069% | |
| 2/17/2025 | Ameriprise Financial Inc. | 21,264 | $623K | 0.0% | N/A | 0.219% | |
| 2/14/2025 | Knightsbridge Asset Management LLC | 6,960 | $204K | 0.0% | N/A | 0.072% | |
| 2/14/2025 | Two Sigma Securities LLC | 7,768 | $228K | 0.0% | N/A | 0.080% | |
| 2/14/2025 | Kayne Anderson Rudnick Investment Management LLC | 1,746 | $51K | 0.0% | -44.2% | 0.018% | |
| 2/13/2025 | Bank of Montreal Can | 2,035 | $60K | 0.0% | -98.4% | 0.021% | |
| 2/13/2025 | Riverwater Partners LLC | 83,541 | $2.45M | 1.2% | +23.3% | 0.861% | |
| 2/12/2025 | National Bank of Canada FI | 7,212 | $211K | 0.0% | -22.9% | 0.074% | |
| 2/12/2025 | JPMorgan Chase & Co. | 17,002 | $498K | 0.0% | -5.9% | 0.175% | |
| 2/11/2025 | Virtu Financial LLC | 11,465 | $336K | 0.0% | +53.1% | 0.118% | |
| 2/10/2025 | Horizon Kinetics Asset Management LLC | 25,010 | $733K | 0.0% | -11.0% | 0.258% | |
| 2/7/2025 | Wealthfront Advisers LLC | 3,452 | $101K | 0.0% | -70.5% | 0.036% | |
| 2/7/2025 | AGF Management Ltd. | 14,018 | $411K | 0.0% | -43.2% | 0.145% | |
| 2/6/2025 | Ethos Financial Group LLC | 35,077 | $1.03M | 0.1% | -12.4% | 0.362% | |
| 2/3/2025 | Private Advisor Group LLC | 19,547 | $573K | 0.0% | -6.9% | 0.202% | |
| 1/30/2025 | Spinnaker Trust | 26,936 | $789K | 0.0% | -55.9% | 0.278% | |
| 1/30/2025 | Figure 8 Investment Strategies LLC | 16,552 | $485K | 0.5% | N/A | 0.171% | |
| 1/21/2025 | Geneos Wealth Management Inc. | 925 | $27K | 0.0% | -48.6% | 0.010% | |
| 1/17/2025 | Sharp Financial Services LLC | 11,227 | $329K | 0.2% | -26.3% | 0.116% | |
| 1/15/2025 | Kraematon Investment Advisors Inc. | 31,321 | $918K | 0.9% | -2.4% | 0.323% | |
| 12/26/2024 | JPMorgan Chase & Co. | 18,064 | $572K | 0.0% | -4.6% | 0.186% | |
| 11/20/2024 | Virtu Financial LLC | 7,491 | $237K | 0.0% | N/A | 0.077% | |
| 11/15/2024 | National Bank of Canada FI | 9,353 | $296K | 0.0% | -8.9% | 0.096% | |
| 11/15/2024 | Jane Street Group LLC | 140,797 | $4.46M | 0.0% | -27.3% | 1.452% | |
| 11/14/2024 | Flow Traders U.S. LLC | 91,220 | $2.89M | 0.1% | N/A | 0.940% | |
| 11/13/2024 | Bank of Montreal Can | 129,630 | $4.14M | 0.0% | +4,376.2% | 1.336% | |
| 11/13/2024 | Horizon Kinetics Asset Management LLC | 28,109 | $890K | 0.0% | -9.7% | 0.290% | |
| 11/12/2024 | Summit Trail Advisors LLC | 196,178 | $6.21M | 0.2% | -39.9% | 2.022% | |
| 11/6/2024 | Palo Alto Wealth Advisors LLC | 50,391 | $1.57M | 0.7% | -16.4% | 0.519% | |
| 10/31/2024 | Spinnaker Trust | 61,017 | $1.93M | 0.1% | -2.3% | 0.629% | |
| 10/24/2024 | Wealth Enhancement Advisory Services LLC | 40,805 | $1.29M | 0.0% | -1.8% | 0.421% | |
| 10/22/2024 | Private Advisor Group LLC | 20,992 | $665K | 0.0% | +7.6% | 0.216% | |
| 9/23/2024 | Centaurus Financial Inc. | 5,456 | $178K | 0.0% | -5.8% | 0.056% | |
|
| 8/30/2024 | Creekside Partners | 10,767 | $350K | 0.2% | N/A | 0.111% | |
| 8/15/2024 | Toronto Dominion Bank | 4,000 | $130K | 0.0% | -33.3% | 0.041% | |
| 8/13/2024 | Kayne Anderson Rudnick Investment Management LLC | 5,324 | $173K | 0.0% | -75.4% | 0.055% | |
| 8/13/2024 | Summit Trail Advisors LLC | 326,497 | $10.62M | 0.3% | +305.0% | 3.366% | |
| 8/5/2024 | Private Advisor Group LLC | 19,516 | $635K | 0.0% | +10.1% | 0.201% | |
| 8/3/2024 | National Bank of Canada FI | 10,266 | $336K | 0.0% | -3.8% | 0.106% | |
| 7/31/2024 | Spinnaker Trust | 62,465 | $2.03M | 0.1% | -37.7% | 0.644% | |
| 7/31/2024 | Picton Mahoney Asset Management | 1,200 | $39K | 0.0% | -45.5% | 0.012% | |
| 7/19/2024 | Riverwater Partners LLC | 67,656 | $2.20M | 1.6% | -0.6% | 0.697% | |
| 7/16/2024 | Wealth Enhancement Advisory Services LLC | 41,564 | $1.35M | 0.0% | +1.0% | 0.428% | |